sensor_id;sensor_type;location;lat;lon;timestamp;P1;durP1;ratioP1;P2;durP2;ratioP2
28245;SDS011;15510;52.512;13.300;2023-11-19T00:02:25;6.40;;;4.90;;
28245;SDS011;15510;52.512;13.300;2023-11-19T00:04:54;7.60;;;5.60;;
28245;SDS011;15510;52.512;13.300;2023-11-19T00:07:20;9.43;;;5.40;;
28245;SDS011;15510;52.512;13.300;2023-11-19T00:09:45;7.93;;;5.63;;
28245;SDS011;15510;52.512;13.300;2023-11-19T00:12:11;7.50;;;5.40;;
28245;SDS011;15510;52.512;13.300;2023-11-19T00:14:38;6.50;;;5.00;;
28245;SDS011;15510;52.512;13.300;2023-11-19T00:17:04;7.80;;;5.30;;
28245;SDS011;15510;52.512;13.300;2023-11-19T00:19:30;6.03;;;4.90;;
28245;SDS011;15510;52.512;13.300;2023-11-19T00:21:55;15.53;;;5.70;;
28245;SDS011;15510;52.512;13.300;2023-11-19T00:24:21;6.07;;;4.90;;
28245;SDS011;15510;52.512;13.300;2023-11-19T00:26:47;7.63;;;4.90;;
28245;SDS011;15510;52.512;13.300;2023-11-19T00:29:20;6.70;;;4.77;;
28245;SDS011;15510;52.512;13.300;2023-11-19T00:31:46;5.60;;;4.53;;
28245;SDS011;15510;52.512;13.300;2023-11-19T00:34:12;7.47;;;5.00;;
28245;SDS011;15510;52.512;13.300;2023-11-19T00:36:38;5.33;;;4.63;;
28245;SDS011;15510;52.512;13.300;2023-11-19T00:39:04;6.13;;;4.83;;
28245;SDS011;15510;52.512;13.300;2023-11-19T00:41:31;7.40;;;5.20;;
28245;SDS011;15510;52.512;13.300;2023-11-19T00:43:57;6.40;;;4.30;;
28245;SDS011;15510;52.512;13.300;2023-11-19T00:46:31;7.27;;;5.27;;
28245;SDS011;15510;52.512;13.300;2023-11-19T00:49:00;10.33;;;4.87;;
28245;SDS011;15510;52.512;13.300;2023-11-19T00:51:26;6.90;;;4.17;;
28245;SDS011;15510;52.512;13.300;2023-11-19T00:53:59;7.00;;;4.27;;
28245;SDS011;15510;52.512;13.300;2023-11-19T00:56:26;5.90;;;4.20;;
28245;SDS011;15510;52.512;13.300;2023-11-19T00:58:54;5.77;;;4.67;;
28245;SDS011;15510;52.512;13.300;2023-11-19T01:01:19;6.57;;;4.97;;
28245;SDS011;15510;52.512;13.300;2023-11-19T01:03:56;5.03;;;4.27;;
28245;SDS011;15510;52.512;13.300;2023-11-19T01:06:30;6.37;;;4.40;;
28245;SDS011;15510;52.512;13.300;2023-11-19T01:08:56;7.43;;;5.07;;
28245;SDS011;15510;52.512;13.300;2023-11-19T01:11:22;6.07;;;4.47;;
28245;SDS011;15510;52.512;13.300;2023-11-19T01:13:49;6.87;;;4.30;;
28245;SDS011;15510;52.512;13.300;2023-11-19T01:16:18;6.93;;;4.27;;
28245;SDS011;15510;52.512;13.300;2023-11-19T01:18:46;5.40;;;4.90;;
28245;SDS011;15510;52.512;13.300;2023-11-19T01:21:12;7.77;;;4.60;;
28245;SDS011;15510;52.512;13.300;2023-11-19T01:23:40;4.90;;;4.37;;
28245;SDS011;15510;52.512;13.300;2023-11-19T01:26:09;6.70;;;4.53;;
28245;SDS011;15510;52.512;13.300;2023-11-19T01:28:35;8.87;;;4.33;;
28245;SDS011;15510;52.512;13.300;2023-11-19T01:31:01;7.00;;;4.17;;
28245;SDS011;15510;52.512;13.300;2023-11-19T01:33:29;5.97;;;4.30;;
28245;SDS011;15510;52.512;13.300;2023-11-19T01:35:55;5.40;;;4.03;;
28245;SDS011;15510;52.512;13.300;2023-11-19T01:38:24;6.17;;;4.20;;
28245;SDS011;15510;52.512;13.300;2023-11-19T01:40:50;5.43;;;4.70;;
28245;SDS011;15510;52.512;13.300;2023-11-19T01:43:33;6.23;;;4.33;;
28245;SDS011;15510;52.512;13.300;2023-11-19T01:46:07;5.53;;;4.47;;
28245;SDS011;15510;52.512;13.300;2023-11-19T01:48:35;4.90;;;4.00;;
28245;SDS011;15510;52.512;13.300;2023-11-19T01:51:05;5.57;;;4.37;;
28245;SDS011;15510;52.512;13.300;2023-11-19T01:53:41;6.07;;;4.40;;
28245;SDS011;15510;52.512;13.300;2023-11-19T01:56:11;6.90;;;4.23;;
28245;SDS011;15510;52.512;13.300;2023-11-19T01:58:39;5.77;;;4.83;;
28245;SDS011;15510;52.512;13.300;2023-11-19T02:01:10;4.77;;;4.27;;
28245;SDS011;15510;52.512;13.300;2023-11-19T02:03:37;6.10;;;4.10;;
28245;SDS011;15510;52.512;13.300;2023-11-19T02:06:03;5.40;;;4.27;;
28245;SDS011;15510;52.512;13.300;2023-11-19T02:08:30;7.23;;;4.47;;
28245;SDS011;15510;52.512;13.300;2023-11-19T02:10:56;4.63;;;4.13;;
28245;SDS011;15510;52.512;13.300;2023-11-19T02:13:22;4.90;;;3.80;;
28245;SDS011;15510;52.512;13.300;2023-11-19T02:15:51;4.73;;;4.07;;
28245;SDS011;15510;52.512;13.300;2023-11-19T02:20:56;6.10;;;4.50;;
28245;SDS011;15510;52.512;13.300;2023-11-19T02:23:28;5.57;;;4.30;;
28245;SDS011;15510;52.512;13.300;2023-11-19T02:28:28;4.87;;;3.83;;
28245;SDS011;15510;52.512;13.300;2023-11-19T02:30:54;5.53;;;4.23;;
28245;SDS011;15510;52.512;13.300;2023-11-19T02:33:20;4.90;;;4.30;;
28245;SDS011;15510;52.512;13.300;2023-11-19T02:35:45;5.60;;;3.73;;
28245;SDS011;15510;52.512;13.300;2023-11-19T02:38:11;4.27;;;3.87;;
28245;SDS011;15510;52.512;13.300;2023-11-19T02:40:40;5.53;;;4.47;;
28245;SDS011;15510;52.512;13.300;2023-11-19T02:43:06;6.83;;;4.17;;
28245;SDS011;15510;52.512;13.300;2023-11-19T02:45:33;4.70;;;3.93;;
28245;SDS011;15510;52.512;13.300;2023-11-19T02:47:59;9.37;;;3.73;;
28245;SDS011;15510;52.512;13.300;2023-11-19T02:50:31;4.57;;;3.80;;
28245;SDS011;15510;52.512;13.300;2023-11-19T02:52:59;7.20;;;3.80;;
28245;SDS011;15510;52.512;13.300;2023-11-19T02:55:26;5.03;;;3.53;;
28245;SDS011;15510;52.512;13.300;2023-11-19T02:57:59;3.73;;;3.33;;
28245;SDS011;15510;52.512;13.300;2023-11-19T03:00:26;5.73;;;3.93;;
28245;SDS011;15510;52.512;13.300;2023-11-19T03:03:00;5.27;;;3.40;;
28245;SDS011;15510;52.512;13.300;2023-11-19T03:05:43;6.43;;;3.70;;
28245;SDS011;15510;52.512;13.300;2023-11-19T03:08:10;3.90;;;3.40;;
28245;SDS011;15510;52.512;13.300;2023-11-19T03:10:36;4.20;;;3.60;;
28245;SDS011;15510;52.512;13.300;2023-11-19T03:13:01;5.20;;;3.10;;
28245;SDS011;15510;52.512;13.300;2023-11-19T03:15:27;5.30;;;3.30;;
28245;SDS011;15510;52.512;13.300;2023-11-19T03:17:53;4.30;;;3.00;;
28245;SDS011;15510;52.512;13.300;2023-11-19T03:20:19;3.23;;;2.93;;
28245;SDS011;15510;52.512;13.300;2023-11-19T03:22:46;4.30;;;3.33;;
28245;SDS011;15510;52.512;13.300;2023-11-19T03:25:12;4.00;;;3.53;;
28245;SDS011;15510;52.512;13.300;2023-11-19T03:27:38;3.77;;;3.37;;
28245;SDS011;15510;52.512;13.300;2023-11-19T03:30:10;3.50;;;3.17;;
28245;SDS011;15510;52.512;13.300;2023-11-19T03:32:36;3.17;;;2.87;;
28245;SDS011;15510;52.512;13.300;2023-11-19T03:35:03;3.87;;;3.17;;
28245;SDS011;15510;52.512;13.300;2023-11-19T03:37:32;6.43;;;3.23;;
28245;SDS011;15510;52.512;13.300;2023-11-19T03:40:01;4.80;;;3.50;;
28245;SDS011;15510;52.512;13.300;2023-11-19T03:42:27;3.73;;;3.27;;
28245;SDS011;15510;52.512;13.300;2023-11-19T03:44:53;9.07;;;3.67;;
28245;SDS011;15510;52.512;13.300;2023-11-19T03:47:20;6.30;;;3.50;;
28245;SDS011;15510;52.512;13.300;2023-11-19T03:49:51;8.60;;;3.37;;
28245;SDS011;15510;52.512;13.300;2023-11-19T03:52:17;5.30;;;3.77;;
28245;SDS011;15510;52.512;13.300;2023-11-19T03:54:43;4.63;;;3.60;;
28245;SDS011;15510;52.512;13.300;2023-11-19T03:57:10;5.80;;;3.77;;
28245;SDS011;15510;52.512;13.300;2023-11-19T03:59:37;4.17;;;3.50;;
28245;SDS011;15510;52.512;13.300;2023-11-19T04:02:03;6.60;;;3.90;;
28245;SDS011;15510;52.512;13.300;2023-11-19T04:04:31;5.03;;;3.90;;
28245;SDS011;15510;52.512;13.300;2023-11-19T04:06:58;4.60;;;3.93;;
28245;SDS011;15510;52.512;13.300;2023-11-19T04:09:28;5.53;;;4.10;;
28245;SDS011;15510;52.512;13.300;2023-11-19T04:12:02;4.30;;;3.90;;
28245;SDS011;15510;52.512;13.300;2023-11-19T04:14:29;6.00;;;4.20;;
28245;SDS011;15510;52.512;13.300;2023-11-19T04:17:02;5.87;;;4.43;;
28245;SDS011;15510;52.512;13.300;2023-11-19T04:19:29;5.23;;;4.17;;
28245;SDS011;15510;52.512;13.300;2023-11-19T04:21:58;5.77;;;4.43;;
28245;SDS011;15510;52.512;13.300;2023-11-19T04:24:26;4.67;;;4.00;;
28245;SDS011;15510;52.512;13.300;2023-11-19T04:26:52;5.83;;;4.13;;
28245;SDS011;15510;52.512;13.300;2023-11-19T04:29:17;5.20;;;4.27;;
28245;SDS011;15510;52.512;13.300;2023-11-19T04:31:47;7.47;;;4.53;;
28245;SDS011;15510;52.512;13.300;2023-11-19T04:34:13;4.30;;;3.87;;
28245;SDS011;15510;52.512;13.300;2023-11-19T04:36:39;8.00;;;4.60;;
28245;SDS011;15510;52.512;13.300;2023-11-19T04:39:05;5.83;;;4.27;;
28245;SDS011;15510;52.512;13.300;2023-11-19T04:41:50;5.70;;;4.33;;
28245;SDS011;15510;52.512;13.300;2023-11-19T04:44:18;8.37;;;4.33;;
28245;SDS011;15510;52.512;13.300;2023-11-19T04:46:50;5.77;;;4.60;;
28245;SDS011;15510;52.512;13.300;2023-11-19T04:49:20;5.47;;;4.47;;
28245;SDS011;15510;52.512;13.300;2023-11-19T04:51:46;5.40;;;4.30;;
28245;SDS011;15510;52.512;13.300;2023-11-19T04:54:12;6.80;;;3.87;;
28245;SDS011;15510;52.512;13.300;2023-11-19T04:56:38;6.10;;;4.03;;
28245;SDS011;15510;52.512;13.300;2023-11-19T04:59:05;4.97;;;4.37;;
28245;SDS011;15510;52.512;13.300;2023-11-19T05:01:36;4.27;;;3.87;;
28245;SDS011;15510;52.512;13.300;2023-11-19T05:04:02;7.33;;;4.47;;
28245;SDS011;15510;52.512;13.300;2023-11-19T05:06:31;5.77;;;4.03;;
28245;SDS011;15510;52.512;13.300;2023-11-19T05:09:00;5.93;;;4.40;;
28245;SDS011;15510;52.512;13.300;2023-11-19T05:11:26;6.13;;;4.40;;
28245;SDS011;15510;52.512;13.300;2023-11-19T05:13:58;6.13;;;4.70;;
28245;SDS011;15510;52.512;13.300;2023-11-19T05:16:23;7.00;;;4.63;;
28245;SDS011;15510;52.512;13.300;2023-11-19T05:18:49;5.80;;;4.17;;
28245;SDS011;15510;52.512;13.300;2023-11-19T05:21:15;5.57;;;4.50;;
28245;SDS011;15510;52.512;13.300;2023-11-19T05:23:42;7.93;;;4.43;;
28245;SDS011;15510;52.512;13.300;2023-11-19T05:26:08;4.97;;;4.10;;
28245;SDS011;15510;52.512;13.300;2023-11-19T05:28:38;4.77;;;4.07;;
28245;SDS011;15510;52.512;13.300;2023-11-19T05:31:04;5.10;;;4.60;;
28245;SDS011;15510;52.512;13.300;2023-11-19T05:33:31;5.97;;;4.07;;
28245;SDS011;15510;52.512;13.300;2023-11-19T05:36:00;5.40;;;4.53;;
28245;SDS011;15510;52.512;13.300;2023-11-19T05:38:29;6.23;;;4.07;;
28245;SDS011;15510;52.512;13.300;2023-11-19T05:40:55;4.80;;;4.33;;
28245;SDS011;15510;52.512;13.300;2023-11-19T05:43:22;4.77;;;4.23;;
28245;SDS011;15510;52.512;13.300;2023-11-19T05:45:47;4.20;;;3.80;;
28245;SDS011;15510;52.512;13.300;2023-11-19T05:48:13;5.17;;;4.33;;
28245;SDS011;15510;52.512;13.300;2023-11-19T05:50:42;5.17;;;4.13;;
28245;SDS011;15510;52.512;13.300;2023-11-19T05:53:07;4.80;;;4.30;;
28245;SDS011;15510;52.512;13.300;2023-11-19T05:55:38;4.87;;;4.30;;
28245;SDS011;15510;52.512;13.300;2023-11-19T05:58:11;5.90;;;4.43;;
28245;SDS011;15510;52.512;13.300;2023-11-19T06:00:38;5.07;;;4.37;;
28245;SDS011;15510;52.512;13.300;2023-11-19T06:03:07;4.60;;;4.13;;
28245;SDS011;15510;52.512;13.300;2023-11-19T06:05:36;5.60;;;4.37;;
28245;SDS011;15510;52.512;13.300;2023-11-19T06:08:04;4.57;;;4.13;;
28245;SDS011;15510;52.512;13.300;2023-11-19T06:10:33;4.17;;;3.77;;
28245;SDS011;15510;52.512;13.300;2023-11-19T06:13:02;5.17;;;4.50;;
28245;SDS011;15510;52.512;13.300;2023-11-19T06:15:30;4.03;;;3.63;;
28245;SDS011;15510;52.512;13.300;2023-11-19T06:17:58;4.53;;;4.03;;
28245;SDS011;15510;52.512;13.300;2023-11-19T06:20:28;4.70;;;4.10;;
28245;SDS011;15510;52.512;13.300;2023-11-19T06:22:58;6.83;;;4.57;;
28245;SDS011;15510;52.512;13.300;2023-11-19T06:25:27;4.97;;;4.07;;
28245;SDS011;15510;52.512;13.300;2023-11-19T06:27:53;3.83;;;3.47;;
28245;SDS011;15510;52.512;13.300;2023-11-19T06:30:19;5.43;;;3.97;;
28245;SDS011;15510;52.512;13.300;2023-11-19T06:32:45;6.07;;;4.57;;
28245;SDS011;15510;52.512;13.300;2023-11-19T06:35:14;5.53;;;4.43;;
28245;SDS011;15510;52.512;13.300;2023-11-19T06:37:41;5.20;;;3.93;;
28245;SDS011;15510;52.512;13.300;2023-11-19T06:40:10;5.03;;;4.10;;
28245;SDS011;15510;52.512;13.300;2023-11-19T06:42:44;4.87;;;4.33;;
28245;SDS011;15510;52.512;13.300;2023-11-19T06:45:10;4.93;;;4.20;;
28245;SDS011;15510;52.512;13.300;2023-11-19T06:47:38;4.93;;;3.83;;
28245;SDS011;15510;52.512;13.300;2023-11-19T06:50:04;6.13;;;3.97;;
28245;SDS011;15510;52.512;13.300;2023-11-19T06:52:32;5.20;;;3.93;;
28245;SDS011;15510;52.512;13.300;2023-11-19T06:54:58;6.43;;;4.13;;
28245;SDS011;15510;52.512;13.300;2023-11-19T06:57:24;5.97;;;4.20;;
28245;SDS011;15510;52.512;13.300;2023-11-19T06:59:50;6.57;;;4.03;;
28245;SDS011;15510;52.512;13.300;2023-11-19T07:02:16;5.70;;;3.90;;
28245;SDS011;15510;52.512;13.300;2023-11-19T07:04:44;6.20;;;3.73;;
28245;SDS011;15510;52.512;13.300;2023-11-19T07:07:13;4.20;;;3.80;;
28245;SDS011;15510;52.512;13.300;2023-11-19T07:09:40;4.43;;;3.90;;
28245;SDS011;15510;52.512;13.300;2023-11-19T07:12:09;5.57;;;4.07;;
28245;SDS011;15510;52.512;13.300;2023-11-19T07:14:36;5.17;;;3.90;;
28245;SDS011;15510;52.512;13.300;2023-11-19T07:17:04;4.90;;;4.20;;
28245;SDS011;15510;52.512;13.300;2023-11-19T07:19:29;4.00;;;3.60;;
28245;SDS011;15510;52.512;13.300;2023-11-19T07:22:00;4.20;;;3.80;;
28245;SDS011;15510;52.512;13.300;2023-11-19T07:24:26;6.60;;;3.87;;
28245;SDS011;15510;52.512;13.300;2023-11-19T07:26:53;4.60;;;4.00;;
28245;SDS011;15510;52.512;13.300;2023-11-19T07:29:19;4.27;;;3.70;;
28245;SDS011;15510;52.512;13.300;2023-11-19T07:31:48;4.13;;;3.33;;
28245;SDS011;15510;52.512;13.300;2023-11-19T07:34:14;4.60;;;3.50;;
28245;SDS011;15510;52.512;13.300;2023-11-19T07:36:39;4.63;;;4.07;;
28245;SDS011;15510;52.512;13.300;2023-11-19T07:39:05;5.00;;;4.00;;
28245;SDS011;15510;52.512;13.300;2023-11-19T07:41:34;5.13;;;4.63;;
28245;SDS011;15510;52.512;13.300;2023-11-19T07:44:04;5.93;;;4.70;;
28245;SDS011;15510;52.512;13.300;2023-11-19T07:46:31;4.90;;;3.93;;
28245;SDS011;15510;52.512;13.300;2023-11-19T07:48:57;4.93;;;4.10;;
28245;SDS011;15510;52.512;13.300;2023-11-19T07:51:23;5.30;;;4.57;;
28245;SDS011;15510;52.512;13.300;2023-11-19T07:53:48;5.00;;;4.43;;
28245;SDS011;15510;52.512;13.300;2023-11-19T07:56:14;4.70;;;4.17;;
28245;SDS011;15510;52.512;13.300;2023-11-19T07:58:40;4.27;;;3.87;;
28245;SDS011;15510;52.512;13.300;2023-11-19T08:01:07;4.20;;;3.80;;
28245;SDS011;15510;52.512;13.300;2023-11-19T08:03:33;5.27;;;4.77;;
28245;SDS011;15510;52.512;13.300;2023-11-19T08:05:59;6.83;;;5.43;;
28245;SDS011;15510;52.512;13.300;2023-11-19T08:08:26;5.00;;;4.47;;
28245;SDS011;15510;52.512;13.300;2023-11-19T08:10:52;5.57;;;4.43;;
28245;SDS011;15510;52.512;13.300;2023-11-19T08:13:19;5.30;;;4.33;;
28245;SDS011;15510;52.512;13.300;2023-11-19T08:15:45;8.13;;;4.93;;
28245;SDS011;15510;52.512;13.300;2023-11-19T08:18:13;5.70;;;4.67;;
28245;SDS011;15510;52.512;13.300;2023-11-19T08:20:39;5.10;;;4.50;;
28245;SDS011;15510;52.512;13.300;2023-11-19T08:23:04;5.50;;;4.87;;
28245;SDS011;15510;52.512;13.300;2023-11-19T08:25:33;5.27;;;4.67;;
28245;SDS011;15510;52.512;13.300;2023-11-19T08:27:59;5.43;;;4.57;;
28245;SDS011;15510;52.512;13.300;2023-11-19T08:30:25;6.13;;;5.03;;
28245;SDS011;15510;52.512;13.300;2023-11-19T08:32:52;5.00;;;4.50;;
28245;SDS011;15510;52.512;13.300;2023-11-19T08:35:21;5.73;;;4.87;;
28245;SDS011;15510;52.512;13.300;2023-11-19T08:37:46;5.83;;;4.87;;
28245;SDS011;15510;52.512;13.300;2023-11-19T08:40:12;7.00;;;5.40;;
28245;SDS011;15510;52.512;13.300;2023-11-19T08:42:40;5.73;;;4.83;;
28245;SDS011;15510;52.512;13.300;2023-11-19T08:45:07;8.67;;;4.67;;
28245;SDS011;15510;52.512;13.300;2023-11-19T08:47:35;6.90;;;5.03;;
28245;SDS011;15510;52.512;13.300;2023-11-19T08:50:01;6.77;;;5.10;;
28245;SDS011;15510;52.512;13.300;2023-11-19T08:52:29;6.27;;;4.60;;
28245;SDS011;15510;52.512;13.300;2023-11-19T08:54:55;5.00;;;4.43;;
28245;SDS011;15510;52.512;13.300;2023-11-19T08:57:21;5.40;;;4.00;;
28245;SDS011;15510;52.512;13.300;2023-11-19T08:59:47;5.57;;;4.23;;
28245;SDS011;15510;52.512;13.300;2023-11-19T09:02:13;4.97;;;4.07;;
28245;SDS011;15510;52.512;13.300;2023-11-19T09:04:39;5.03;;;4.20;;
28245;SDS011;15510;52.512;13.300;2023-11-19T09:07:05;5.23;;;4.43;;
28245;SDS011;15510;52.512;13.300;2023-11-19T09:09:32;4.87;;;4.00;;
28245;SDS011;15510;52.512;13.300;2023-11-19T09:12:01;6.87;;;4.60;;
28245;SDS011;15510;52.512;13.300;2023-11-19T09:14:27;5.00;;;4.03;;
28245;SDS011;15510;52.512;13.300;2023-11-19T09:16:52;4.73;;;4.03;;
28245;SDS011;15510;52.512;13.300;2023-11-19T09:19:21;4.30;;;3.83;;
28245;SDS011;15510;52.512;13.300;2023-11-19T09:21:46;4.00;;;3.53;;
28245;SDS011;15510;52.512;13.300;2023-11-19T09:24:13;3.80;;;3.20;;
28245;SDS011;15510;52.512;13.300;2023-11-19T09:26:38;4.10;;;3.63;;
28245;SDS011;15510;52.512;13.300;2023-11-19T09:29:06;5.03;;;4.03;;
28245;SDS011;15510;52.512;13.300;2023-11-19T09:31:37;4.40;;;3.80;;
28245;SDS011;15510;52.512;13.300;2023-11-19T09:34:04;5.53;;;3.70;;
28245;SDS011;15510;52.512;13.300;2023-11-19T09:36:32;4.07;;;3.27;;
28245;SDS011;15510;52.512;13.300;2023-11-19T09:39:01;6.73;;;3.40;;
28245;SDS011;15510;52.512;13.300;2023-11-19T09:41:27;2.97;;;2.73;;
28245;SDS011;15510;52.512;13.300;2023-11-19T09:43:55;3.13;;;2.83;;
28245;SDS011;15510;52.512;13.300;2023-11-19T09:46:21;4.90;;;3.17;;
28245;SDS011;15510;52.512;13.300;2023-11-19T09:48:49;5.23;;;2.83;;
28245;SDS011;15510;52.512;13.300;2023-11-19T09:51:21;3.03;;;2.73;;
28245;SDS011;15510;52.512;13.300;2023-11-19T09:53:47;3.03;;;2.33;;
28245;SDS011;15510;52.512;13.300;2023-11-19T09:56:14;2.83;;;2.57;;
28245;SDS011;15510;52.512;13.300;2023-11-19T09:58:42;4.27;;;2.73;;
28245;SDS011;15510;52.512;13.300;2023-11-19T10:01:08;3.13;;;2.40;;
28245;SDS011;15510;52.512;13.300;2023-11-19T10:03:36;3.23;;;2.27;;
28245;SDS011;15510;52.512;13.300;2023-11-19T10:06:08;3.60;;;2.43;;
28245;SDS011;15510;52.512;13.300;2023-11-19T10:08:36;3.60;;;2.10;;
28245;SDS011;15510;52.512;13.300;2023-11-19T10:11:04;3.63;;;1.90;;
28245;SDS011;15510;52.512;13.300;2023-11-19T10:13:36;4.63;;;1.93;;
28245;SDS011;15510;52.512;13.300;2023-11-19T10:16:09;3.30;;;1.80;;
28245;SDS011;15510;52.512;13.300;2023-11-19T10:18:40;4.53;;;1.83;;
28245;SDS011;15510;52.512;13.300;2023-11-19T10:21:12;4.07;;;1.63;;
28245;SDS011;15510;52.512;13.300;2023-11-19T10:23:50;6.10;;;2.07;;
28245;SDS011;15510;52.512;13.300;2023-11-19T10:26:18;4.50;;;2.30;;
28245;SDS011;15510;52.512;13.300;2023-11-19T10:28:45;3.00;;;1.80;;
28245;SDS011;15510;52.512;13.300;2023-11-19T10:31:15;8.90;;;1.93;;
28245;SDS011;15510;52.512;13.300;2023-11-19T10:33:50;9.33;;;2.10;;
28245;SDS011;15510;52.512;13.300;2023-11-19T10:36:18;4.77;;;2.10;;
28245;SDS011;15510;52.512;13.300;2023-11-19T10:38:54;6.83;;;2.00;;
28245;SDS011;15510;52.512;13.300;2023-11-19T10:41:30;8.17;;;2.00;;
28245;SDS011;15510;52.512;13.300;2023-11-19T10:43:57;7.50;;;2.27;;
28245;SDS011;15510;52.512;13.300;2023-11-19T10:46:23;5.73;;;2.43;;
28245;SDS011;15510;52.512;13.300;2023-11-19T10:49:03;5.67;;;2.23;;
28245;SDS011;15510;52.512;13.300;2023-11-19T10:51:30;5.00;;;2.10;;
28245;SDS011;15510;52.512;13.300;2023-11-19T10:53:58;7.90;;;2.30;;
28245;SDS011;15510;52.512;13.300;2023-11-19T10:56:33;7.85;;;1.90;;
28245;SDS011;15510;52.512;13.300;2023-11-19T10:59:00;7.65;;;2.80;;
28245;SDS011;15510;52.512;13.300;2023-11-19T11:01:27;13.55;;;3.05;;
28245;SDS011;15510;52.512;13.300;2023-11-19T11:04:05;10.30;;;2.83;;
28245;SDS011;15510;52.512;13.300;2023-11-19T11:06:38;6.53;;;2.53;;
28245;SDS011;15510;52.512;13.300;2023-11-19T11:09:05;12.00;;;2.63;;
28245;SDS011;15510;52.512;13.300;2023-11-19T11:11:37;8.93;;;2.15;;
28245;SDS011;15510;52.512;13.300;2023-11-19T11:14:04;15.13;;;2.57;;
28245;SDS011;15510;52.512;13.300;2023-11-19T11:16:30;9.07;;;2.33;;
28245;SDS011;15510;52.512;13.300;2023-11-19T11:18:57;7.32;;;2.25;;
28245;SDS011;15510;52.512;13.300;2023-11-19T11:21:24;8.75;;;2.28;;
28245;SDS011;15510;52.512;13.300;2023-11-19T11:38:31;13.75;;;2.92;;
28245;SDS011;15510;52.512;13.300;2023-11-19T11:41:14;14.88;;;3.40;;
28245;SDS011;15510;52.512;13.300;2023-11-19T11:43:43;7.82;;;1.88;;
28245;SDS011;15510;52.512;13.300;2023-11-19T11:49:00;10.15;;;2.88;;
28245;SDS011;15510;52.512;13.300;2023-11-19T11:54:11;10.20;;;2.95;;
28245;SDS011;15510;52.512;13.300;2023-11-19T11:57:08;11.95;;;2.97;;
28245;SDS011;15510;52.512;13.300;2023-11-19T12:02:07;13.63;;;3.42;;
28245;SDS011;15510;52.512;13.300;2023-11-19T12:04:34;10.40;;;3.28;;
28245;SDS011;15510;52.512;13.300;2023-11-19T12:07:04;10.25;;;4.25;;
28245;SDS011;15510;52.512;13.300;2023-11-19T12:09:40;9.00;;;2.30;;
28245;SDS011;15510;52.512;13.300;2023-11-19T12:12:07;12.70;;;2.70;;
28245;SDS011;15510;52.512;13.300;2023-11-19T12:20:07;13.20;;;3.00;;
28245;SDS011;15510;52.512;13.300;2023-11-19T12:22:39;14.20;;;3.55;;
28245;SDS011;15510;52.512;13.300;2023-11-19T12:25:07;12.52;;;3.30;;
28245;SDS011;15510;52.512;13.300;2023-11-19T12:27:34;10.95;;;3.30;;
28245;SDS011;15510;52.512;13.300;2023-11-19T12:30:10;13.80;;;3.15;;
28245;SDS011;15510;52.512;13.300;2023-11-19T12:32:42;11.75;;;2.63;;
28245;SDS011;15510;52.512;13.300;2023-11-19T12:35:09;13.88;;;3.65;;
28245;SDS011;15510;52.512;13.300;2023-11-19T12:37:39;17.70;;;3.88;;
28245;SDS011;15510;52.512;13.300;2023-11-19T12:40:13;17.90;;;3.67;;
28245;SDS011;15510;52.512;13.300;2023-11-19T12:42:41;13.60;;;2.85;;
28245;SDS011;15510;52.512;13.300;2023-11-19T12:45:07;9.60;;;3.05;;
28245;SDS011;15510;52.512;13.300;2023-11-19T12:47:39;20.85;;;4.07;;
28245;SDS011;15510;52.512;13.300;2023-11-19T12:50:06;11.63;;;3.90;;
28245;SDS011;15510;52.512;13.300;2023-11-19T12:52:37;16.75;;;3.50;;
28245;SDS011;15510;52.512;13.300;2023-11-19T12:55:03;15.68;;;2.83;;
28245;SDS011;15510;52.512;13.300;2023-11-19T13:00:06;15.20;;;3.28;;
28245;SDS011;15510;52.512;13.300;2023-11-19T13:02:48;17.33;;;3.25;;
28245;SDS011;15510;52.512;13.300;2023-11-19T13:05:26;12.18;;;3.20;;
28245;SDS011;15510;52.512;13.300;2023-11-19T13:10:30;16.67;;;4.10;;
28245;SDS011;15510;52.512;13.300;2023-11-19T13:13:18;17.40;;;4.10;;
28245;SDS011;15510;52.512;13.300;2023-11-19T13:15:46;12.35;;;3.42;;
28245;SDS011;15510;52.512;13.300;2023-11-19T13:18:12;11.85;;;3.58;;
28245;SDS011;15510;52.512;13.300;2023-11-19T13:20:39;18.55;;;4.05;;
28245;SDS011;15510;52.512;13.300;2023-11-19T13:23:05;14.02;;;4.47;;
28245;SDS011;15510;52.512;13.300;2023-11-19T13:25:32;16.90;;;2.95;;
28245;SDS011;15510;52.512;13.300;2023-11-19T13:27:58;28.17;;;9.40;;
28245;SDS011;15510;52.512;13.300;2023-11-19T13:30:25;19.23;;;3.65;;
28245;SDS011;15510;52.512;13.300;2023-11-19T13:32:51;16.20;;;2.75;;
28245;SDS011;15510;52.512;13.300;2023-11-19T13:35:19;11.88;;;2.67;;
28245;SDS011;15510;52.512;13.300;2023-11-19T13:37:45;16.00;;;2.90;;
28245;SDS011;15510;52.512;13.300;2023-11-19T13:40:11;17.83;;;3.25;;
28245;SDS011;15510;52.512;13.300;2023-11-19T13:42:41;14.38;;;3.03;;
28245;SDS011;15510;52.512;13.300;2023-11-19T13:45:08;13.27;;;3.13;;
28245;SDS011;15510;52.512;13.300;2023-11-19T13:47:38;17.98;;;4.25;;
28245;SDS011;15510;52.512;13.300;2023-11-19T13:50:09;17.60;;;4.20;;
28245;SDS011;15510;52.512;13.300;2023-11-19T13:52:37;19.48;;;4.47;;
28245;SDS011;15510;52.512;13.300;2023-11-19T13:55:05;19.35;;;3.78;;
28245;SDS011;15510;52.512;13.300;2023-11-19T13:57:35;17.75;;;4.45;;
28245;SDS011;15510;52.512;13.300;2023-11-19T14:00:02;21.83;;;4.88;;
28245;SDS011;15510;52.512;13.300;2023-11-19T14:02:34;18.38;;;4.13;;
28245;SDS011;15510;52.512;13.300;2023-11-19T14:05:00;17.35;;;4.38;;
28245;SDS011;15510;52.512;13.300;2023-11-19T14:07:25;16.25;;;4.43;;
28245;SDS011;15510;52.512;13.300;2023-11-19T14:09:52;15.05;;;4.30;;
28245;SDS011;15510;52.512;13.300;2023-11-19T14:12:18;16.30;;;4.03;;
28245;SDS011;15510;52.512;13.300;2023-11-19T14:14:44;18.02;;;6.18;;
28245;SDS011;15510;52.512;13.300;2023-11-19T14:17:10;12.35;;;3.92;;
28245;SDS011;15510;52.512;13.300;2023-11-19T14:19:39;16.48;;;5.18;;
28245;SDS011;15510;52.512;13.300;2023-11-19T14:22:05;16.23;;;4.50;;
28245;SDS011;15510;52.512;13.300;2023-11-19T14:24:31;17.92;;;4.22;;
28245;SDS011;15510;52.512;13.300;2023-11-19T14:26:57;17.25;;;4.50;;
28245;SDS011;15510;52.512;13.300;2023-11-19T14:29:26;14.82;;;5.10;;
28245;SDS011;15510;52.512;13.300;2023-11-19T14:31:53;18.00;;;3.97;;
28245;SDS011;15510;52.512;13.300;2023-11-19T14:34:19;13.63;;;4.00;;
28245;SDS011;15510;52.512;13.300;2023-11-19T14:36:45;18.95;;;4.10;;
28245;SDS011;15510;52.512;13.300;2023-11-19T14:39:12;16.35;;;4.65;;
28245;SDS011;15510;52.512;13.300;2023-11-19T14:41:44;18.05;;;4.55;;
28245;SDS011;15510;52.512;13.300;2023-11-19T14:44:10;15.63;;;5.45;;
28245;SDS011;15510;52.512;13.300;2023-11-19T14:46:36;15.77;;;5.00;;
28245;SDS011;15510;52.512;13.300;2023-11-19T14:49:02;18.40;;;6.72;;
28245;SDS011;15510;52.512;13.300;2023-11-19T14:51:36;25.85;;;8.75;;
28245;SDS011;15510;52.512;13.300;2023-11-19T14:54:05;22.15;;;7.82;;
28245;SDS011;15510;52.512;13.300;2023-11-19T14:56:31;17.58;;;5.50;;
28245;SDS011;15510;52.512;13.300;2023-11-19T14:59:00;19.50;;;5.10;;
28245;SDS011;15510;52.512;13.300;2023-11-19T15:01:35;14.25;;;3.53;;
28245;SDS011;15510;52.512;13.300;2023-11-19T15:04:01;19.00;;;4.90;;
28245;SDS011;15510;52.512;13.300;2023-11-19T15:06:26;18.98;;;4.00;;
28245;SDS011;15510;52.512;13.300;2023-11-19T15:08:55;15.80;;;4.00;;
28245;SDS011;15510;52.512;13.300;2023-11-19T15:11:21;18.58;;;2.80;;
28245;SDS011;15510;52.512;13.300;2023-11-19T15:13:47;19.33;;;3.58;;
28245;SDS011;15510;52.512;13.300;2023-11-19T15:16:18;14.10;;;3.90;;